Date,TemperatureHighF,TemperatureAvgF,TemperatureLowF,DewpointHighF,DewpointAvgF,DewpointLowF,HumidityHigh,HumidityAvg,HumidityLow,PressureMaxIn,PressureMinIn,WindSpeedMaxMPH,WindSpeedAvgMPH,GustSpeedMaxMPH,PrecipitationSumIn
2013-1-1,41.7,37.1,28.4,31.2,28.0,19.9,77,69,65,30.06,29.93,7,2,0,0.00
2013-1-2,33.3,26.9,22.3,19.2,15.4,12.9,72,62,48,30.25,30.03,10,2,0,0.00
2013-1-3,34.7,26.7,18.9,20.0,16.0,11.8,74,64,52,30.25,30.11,8,2,0,0.00
2013-1-4,39.7,33.8,30.6,23.5,21.1,19.1,65,59,51,30.15,30.02,11,4,0,0.00
2013-1-5,41.0,31.7,26.2,25.2,21.1,17.8,78,65,52,30.35,30.07,9,2,0,0.00
2013-1-6,47.5,36.9,23.9,34.4,27.7,20.9,91,71,50,30.16,29.96,8,2,0,0.00
2013-1-7,45.0,37.7,27.1,30.3,27.4,21.8,80,67,52,30.36,30.07,8,3,0,0.00
2013-1-8,50.2,31.9,21.4,35.6,25.6,17.3,89,78,57,30.35,30.29,3,0,0,0.00
2013-1-9,44.4,33.4,21.7,37.0,28.8,18.4,90,84,65,30.31,30.10,6,1,0,0.00
2013-1-10,48.2,39.9,34.7,31.4,28.5,25.5,78,64,50,30.48,30.24,7,2,0,0.00
2013-1-11,45.3,39.2,31.5,39.9,33.7,25.4,94,81,69,30.38,29.96,5,1,0,0.44
2013-1-12,53.6,43.6,40.5,47.9,41.4,38.9,95,92,81,30.04,29.96,5,0,0,0.00
2013-1-13,47.8,44.4,37.8,46.7,43.3,36.2,97,96,94,29.99,29.83,4,1,0,0.00
2013-1-14,53.1,47.6,39.6,50.1,42.5,33.3,98,83,59,30.17,29.77,8,2,0,0.19
2013-1-15,40.1,37.4,33.1,36.8,32.3,28.5,92,82,68,30.21,30.03,4,2,0,0.35
2013-1-16,35.8,34.0,32.0,34.2,32.0,29.9,94,92,91,30.02,29.71,5,1,0,0.79
2013-1-17,40.5,37.3,33.6,34.9,30.9,28.1,95,78,67,29.98,29.81,7,1,0,0.00
2013-1-18,34.2,29.5,24.1,28.4,14.9,8.1,81,55,37,30.34,29.87,11,4,0,0.00
2013-1-19,56.3,39.2,24.6,30.8,24.9,13.9,75,57,35,30.23,29.74,10,4,0,0.00
2013-1-20,54.3,41.8,27.0,34.3,23.7,13.8,60,50,30,29.94,29.62,17,5,0,0.00
2013-1-21,35.6,26.8,18.3,23.4,15.2,10.2,82,62,50,29.98,29.69,8,2,0,0.00
2013-1-22,24.3,16.4,10.4,11.7,-1.8,-5.3,61,44,35,30.13,29.78,14,6,0,0.00
2013-1-23,20.3,13.2,8.6,2.3,-1.6,-4.1,68,52,37,30.16,30.02,10,3,0,0.00
2013-1-24,26.8,17.8,11.1,8.9,3.6,-1.4,76,55,30,30.35,29.97,13,3,0,0.00
2013-1-25,22.8,15.4,6.8,12.4,4.3,-1.0,83,62,43,30.35,29.92,6,1,0,0.00
2013-1-26,28.8,19.2,12.2,16.6,11.6,6.7,83,72,54,30.27,29.94,8,1,0,0.02
2013-1-27,35.2,21.7,9.0,18.0,12.5,3.8,86,68,48,30.44,30.28,6,1,0,0.02
2013-1-28,34.5,31.9,24.1,32.4,27.7,17.0,92,84,64,30.34,29.88,5,1,0,0.20
2013-1-29,62.2,46.0,34.5,52.3,41.9,32.4,94,86,70,29.98,29.83,4,1,0,0.06
2013-1-30,64.6,52.8,40.3,59.7,51.1,38.7,98,94,84,29.82,29.10,12,3,0,1.68
2013-1-31,56.8,40.2,27.5,56.2,27.5,11.1,98,62,41,29.71,28.96,16,7,0,0.92
2013-2-1,28.2,24.9,17.4,17.8,9.2,4.3,69,51,39,30.18,29.68,19,6,0,0.00
2013-2-2,25.0,20.2,14.2,20.1,10.3,3.0,87,66,50,30.20,29.87,11,3,0,0.00
2013-2-3,36.1,27.0,17.1,25.9,21.2,13.5,88,79,61,29.87,29.65,11,2,0,0.06
2013-2-4,32.5,26.3,19.6,21.4,14.1,8.7,74,60,47,29.90,29.75,11,3,0,0.01
2013-2-5,36.0,31.3,28.4,28.4,25.8,21.4,89,80,72,29.78,29.70,4,1,0,0.00
2013-2-6,39.6,30.9,23.2,28.6,24.3,17.1,92,77,58,30.21,29.77,10,2,0,0.00
2013-2-7,37.4,29.4,19.6,23.0,18.6,15.3,85,65,43,30.32,30.11,6,2,0,0.00
2013-2-8,38.7,33.9,30.2,35.1,29.6,21.8,93,84,67,30.10,29.58,20,3,0,0.07
2013-2-9,35.4,27.2,19.0,21.8,17.1,12.9,78,66,55,30.25,29.72,14,5,0,0.03
2013-2-10,45.0,29.2,14.4,21.2,14.5,9.4,81,57,31,30.34,30.09,6,2,0,0.01
2013-2-11,48.4,39.3,32.5,45.6,35.7,22.0,95,87,61,30.09,29.51,10,2,0,0.27
2013-2-12,46.2,38.9,27.3,32.5,27.5,22.3,82,64,52,29.84,29.63,11,3,0,0.00
2013-2-13,42.6,32.4,21.4,30.9,26.3,18.1,92,79,60,29.82,29.52,6,1,0,0.02
2013-2-14,47.1,36.5,30.2,32.3,29.7,27.1,93,78,55,29.84,29.60,6,2,0,0.14
2013-2-15,55.9,40.1,27.9,38.1,31.6,24.6,91,74,49,29.87,29.77,10,2,0,0.16
2013-2-16,36.0,32.3,28.4,31.4,26.3,16.3,93,79,59,29.85,29.67,4,1,0,0.15
2013-2-17,30.9,25.4,20.8,16.6,11.1,4.6,67,54,40,30.00,29.66,16,6,0,0.00
2013-2-18,39.4,26.9,16.0,19.7,10.3,4.7,67,50,32,30.19,30.00,11,4,0,0.00
2013-2-19,41.7,35.5,27.5,38.1,28.9,20.1,92,77,60,30.00,29.52,8,3,0,0.21
2013-2-20,34.3,27.7,22.6,22.7,14.0,9.7,70,56,48,29.96,29.66,16,6,0,0.00
2013-2-21,37.2,27.5,22.5,19.3,14.1,10.0,69,57,47,30.17,29.93,16,5,0,0.00
2013-2-22,36.0,29.0,20.7,28.2,20.9,14.9,84,72,59,30.25,30.08,8,2,0,0.00
2013-2-23,45.3,37.3,32.0,42.5,35.1,28.4,94,92,85,30.08,29.66,4,1,0,0.06
2013-2-24,45.5,37.5,28.2,37.7,29.7,19.7,95,75,55,29.93,29.63,12,3,0,0.01
2013-2-25,47.7,35.0,23.5,30.0,23.8,17.4,77,64,47,30.07,29.93,7,2,0,0.00
2013-2-26,44.1,36.8,26.2,35.1,30.5,21.8,92,78,61,30.09,29.56,14,4,0,0.27
2013-2-27,53.4,43.6,37.0,41.8,37.5,33.0,95,80,62,29.54,29.36,12,4,0,0.18
2013-2-28,46.2,39.9,31.5,35.3,31.4,26.7,87,72,54,29.53,29.44,8,2,0,0.00
2013-3-1,44.1,38.8,32.4,31.5,29.1,24.8,85,68,59,29.70,29.52,10,3,0,0.00
2013-3-2,39.2,34.6,29.7,25.0,22.8,20.7,70,62,52,29.71,29.62,11,3,0,0.00
2013-3-3,36.3,31.6,27.3,23.4,20.3,17.1,74,63,55,29.81,29.65,12,5,0,0.00
2013-3-4,39.0,31.0,26.1,22.9,18.5,14.9,69,60,50,29.97,29.81,18,6,0,0.00
2013-3-5,48.9,34.5,23.4,31.1,23.6,16.1,76,65,49,30.03,29.83,6,2,0,0.00
2013-3-6,39.4,36.5,32.9,35.1,31.5,26.9,90,82,71,29.94,29.69,19,6,0,0.35
2013-3-7,51.4,38.3,31.8,31.9,26.9,22.4,78,64,46,30.08,29.94,8,2,0,0.00
2013-3-8,49.5,38.6,30.0,30.6,25.5,21.4,71,59,48,30.23,30.03,17,4,0,0.00
2013-3-9,62.8,43.0,28.0,30.7,24.8,19.8,72,52,24,30.29,30.12,7,2,0,0.00
2013-3-10,62.6,44.5,25.7,32.9,25.0,12.7,84,52,15,30.27,30.11,9,2,0,0.00
2013-3-11,57.4,47.8,38.1,48.7,41.8,32.8,90,80,61,30.18,29.86,6,3,0,0.00
2013-3-12,55.9,50.1,40.6,55.0,45.2,30.3,97,84,65,29.87,29.64,13,4,0,1.44
2013-3-13,46.9,39.0,30.4,36.2,27.0,17.5,81,63,42,29.95,29.78,12,4,0,0.00
2013-3-14,41.9,35.0,29.8,19.5,17.1,14.6,62,48,35,30.00,29.89,16,8,0,0.00
2013-3-15,54.7,39.8,24.3,34.4,24.0,11.5,69,54,40,30.00,29.65,16,4,0,0.00
2013-3-16,43.5,36.3,32.5,34.1,30.3,27.0,91,79,63,29.88,29.67,7,2,0,0.12
2013-3-17,40.8,34.2,29.1,30.6,26.5,20.9,91,74,52,30.23,29.87,6,2,0,0.00
2013-3-18,36.3,32.5,29.8,30.6,24.1,16.4,92,72,54,30.29,29.84,9,3,0,0.07
2013-3-19,54.5,39.8,32.7,38.8,30.2,20.1,94,72,34,29.83,29.59,14,4,0,0.93
2013-3-20,48.4,38.7,30.4,23.5,20.0,16.9,61,48,29,29.88,29.68,16,4,0,0.00
2013-3-21,37.0,31.7,26.6,23.4,15.7,9.8,68,52,34,29.78,29.64,12,4,0,0.00
2013-3-22,41.5,33.1,25.7,25.3,19.9,12.7,74,59,46,29.92,29.76,11,4,0,0.00
2013-3-23,48.4,36.8,27.1,26.5,21.9,18.3,70,56,40,29.93,29.80,16,4,0,0.00
2013-3-24,47.7,36.7,23.7,27.5,22.9,17.9,79,58,41,29.94,29.59,6,1,0,0.00
2013-3-25,37.4,34.8,31.6,33.9,30.4,25.7,92,84,63,29.60,29.44,7,2,0,0.41
2013-3-26,51.6,40.0,31.3,35.2,31.6,28.5,92,74,41,29.88,29.60,8,3,0,0.01
2013-3-27,50.7,41.3,34.0,31.7,29.0,24.9,77,62,44,30.00,29.88,14,4,0,0.00
2013-3-28,49.3,41.2,32.0,34.2,29.2,25.2,79,63,46,30.13,29.98,14,3,0,0.00
2013-3-29,57.4,45.7,38.5,36.0,30.8,27.0,71,57,37,30.16,30.00,10,3,0,0.00
2013-3-30,63.7,44.9,28.4,33.9,28.1,23.4,87,56,23,30.16,29.96,7,2,0,0.00
2013-3-31,55.0,46.4,38.7,45.5,37.4,26.3,94,72,53,30.04,29.64,7,2,0,0.02
2013-4-1,61.7,46.8,35.4,45.1,34.3,15.1,95,65,36,29.91,29.61,19,5,0,0.01
2013-4-2,46.8,36.0,26.1,20.6,16.0,13.1,65,45,27,30.09,29.91,14,4,0,0.00
2013-4-3,48.7,35.6,23.5,20.0,15.7,9.9,69,46,24,30.30,30.09,15,4,0,0.00
2013-4-4,54.0,37.8,23.9,24.8,17.9,12.2,63,46,25,30.38,30.00,10,2,0,0.00
2013-4-5,63.5,49.3,32.7,34.9,25.5,16.3,86,44,19,29.98,29.65,14,3,0,0.00
2013-4-6,62.2,43.5,29.7,25.6,19.7,14.2,67,41,18,30.27,29.98,6,2,0,0.00
2013-4-7,66.0,51.9,39.0,46.0,37.4,24.2,75,58,46,30.19,29.82,14,4,0,0.00
2013-4-8,80.2,64.8,46.2,54.1,48.1,40.9,83,57,38,29.98,29.77,13,3,0,0.00
2013-4-9,85.5,72.5,60.1,56.6,53.5,48.8,68,52,33,29.93,29.74,9,4,0,0.00
2013-4-10,89.1,75.0,59.4,66.4,57.5,51.8,89,56,37,29.82,29.58,10,4,0,0.07
2013-4-11,80.4,65.0,53.1,66.2,58.0,46.8,94,79,60,29.79,29.63,11,4,0,0.00
2013-4-12,52.7,48.0,45.5,47.0,45.4,43.9,94,91,80,29.79,29.57,12,5,0,0.43
2013-4-13,69.8,51.6,38.8,44.3,39.4,35.5,95,66,38,29.89,29.71,10,2,0,0.00
2013-4-14,67.8,50.7,35.8,41.4,34.9,29.8,88,58,28,30.08,29.90,9,2,0,0.00
2013-4-15,67.1,55.5,48.6,48.5,42.8,36.2,78,63,51,30.22,30.05,8,3,0,0.00
2013-4-16,74.3,60.9,51.8,59.4,52.8,46.2,84,75,59,30.22,29.96,11,3,0,0.00
2013-4-17,78.4,62.3,56.1,58.3,51.7,44.9,96,71,32,30.16,30.00,8,2,0,0.04
2013-4-18,68.0,60.1,55.9,61.6,53.0,41.4,91,78,54,30.15,29.91,7,3,0,0.02
2013-4-19,74.5,64.2,50.4,66.4,59.9,48.5,95,86,74,29.91,29.44,14,4,0,1.42
2013-4-20,58.3,49.2,39.7,48.4,35.6,27.0,96,63,35,30.28,29.67,12,4,0,0.15
2013-4-21,58.6,43.5,28.0,33.7,27.3,21.4,78,55,32,30.54,30.29,6,2,0,0.00
2013-4-22,60.8,46.2,31.3,38.4,33.3,27.6,89,63,40,30.55,30.31,10,3,0,0.00
2013-4-23,64.0,50.2,41.7,46.3,39.9,34.4,88,69,51,30.37,30.00,7,3,0,0.00
2013-4-24,75.0,57.2,39.2,58.8,49.9,37.1,95,78,53,30.05,29.62,16,3,0,0.15
2013-4-25,69.6,52.3,41.7,44.1,34.9,31.4,72,54,25,30.22,29.90,12,4,0,0.00
2013-4-26,70.5,52.0,39.2,39.9,34.5,24.4,83,56,22,30.38,30.22,7,2,0,0.00
2013-4-27,77.2,55.3,34.5,43.0,35.7,30.5,87,53,20,30.39,30.13,6,2,0,0.00
2013-4-28,71.2,56.7,41.2,48.9,41.9,36.4,88,61,31,30.22,30.04,9,2,0,0.02
2013-4-29,59.7,54.8,50.2,57.7,51.1,39.9,94,88,60,30.08,29.98,7,2,0,0.66
2013-4-30,73.0,59.4,48.0,55.3,51.3,40.5,96,77,48,30.22,30.05,8,3,0,0.00
2013-5-1,78.4,58.2,38.8,43.7,37.6,30.9,84,52,21,30.35,30.22,8,2,0,0.00
2013-5-2,79.5,57.6,39.9,50.0,44.0,36.9,91,65,31,30.38,30.18,7,2,0,0.00
2013-5-3,74.3,58.3,44.6,47.7,43.6,38.2,89,61,29,30.33,30.17,10,3,0,0.00
2013-5-4,77.2,57.0,38.8,51.3,43.0,36.1,92,64,31,30.27,30.03,7,2,0,0.00
2013-5-5,74.7,55.3,39.0,47.7,41.6,35.2,90,63,33,30.20,30.01,6,2,0,0.00
2013-5-6,70.0,54.8,40.1,56.8,48.2,36.5,91,79,63,30.15,29.98,8,2,0,0.00
2013-5-7,72.7,61.4,53.6,62.4,56.7,50.5,93,85,65,30.02,29.89,8,4,0,0.18
2013-5-8,77.7,62.8,53.6,62.3,57.3,50.9,96,84,52,29.92,29.75,5,2,0,0.27
2013-5-9,75.2,61.1,50.2,60.8,55.7,48.3,95,83,61,29.87,29.77,6,1,0,0.05
2013-5-10,84.0,67.2,52.5,63.3,58.0,51.1,96,76,43,29.93,29.73,7,1,0,0.88
2013-5-11,77.9,65.3,59.2,66.8,62.0,57.5,96,90,62,29.79,29.55,7,2,0,0.48
2013-5-12,64.0,56.7,46.8,57.3,40.8,28.3,94,59,28,29.92,29.63,10,3,0,0.00
2013-5-13,58.6,48.0,39.2,35.1,31.2,27.8,78,54,33,30.09,29.92,9,2,0,0.00
2013-5-14,65.8,50.2,34.7,46.2,33.2,27.2,87,56,27,30.14,29.93,8,2,0,0.05
2013-5-15,83.7,60.4,49.3,63.1,52.8,44.3,89,77,50,29.98,29.54,12,2,0,0.06
2013-5-16,88.0,70.3,57.0,67.1,58.9,50.5,97,72,35,29.78,29.60,8,2,0,0.15
2013-5-17,83.3,67.7,53.1,51.1,45.9,41.2,70,48,23,30.06,29.78,6,2,0,0.00
2013-5-18,71.4,63.4,57.6,58.0,53.5,47.0,94,71,52,30.15,30.06,6,2,0,0.03
2013-5-19,68.0,62.4,58.1,63.5,60.3,56.6,97,93,85,30.14,30.01,6,2,0,0.01
2013-5-20,85.6,71.7,62.1,70.3,65.7,61.5,98,83,57,30.04,29.81,6,2,0,0.00
2013-5-21,89.6,75.9,62.8,73.7,68.8,61.9,98,81,57,29.88,29.66,11,2,0,0.00
2013-5-22,94.5,77.6,65.1,73.7,67.5,63.8,97,75,39,29.78,29.61,11,2,0,0.00
2013-5-23,80.8,71.3,62.8,71.6,66.1,60.9,94,84,66,29.76,29.58,7,2,0,0.26
2013-5-24,62.8,55.7,47.1,61.3,48.9,37.4,96,79,62,30.03,29.61,10,3,0,0.10
2013-5-25,70.9,55.4,44.1,40.2,36.5,32.5,73,51,27,30.04,29.89,9,3,0,0.00
2013-5-26,77.2,59.2,46.9,43.4,38.0,33.8,69,48,23,30.13,29.95,9,3,0,0.00
2013-5-27,74.1,58.9,41.0,47.8,42.5,36.5,88,58,31,30.20,30.03,4,1,0,0.00
2013-5-28,68.4,61.0,55.0,65.0,57.3,47.2,97,88,66,30.11,29.97,3,1,0,0.36
2013-5-29,93.9,75.7,59.9,71.5,64.9,59.0,98,74,42,30.00,29.85,8,2,0,0.01
2013-5-30,95.5,79.2,63.9,70.9,66.6,62.1,95,69,40,30.05,29.90,6,2,0,0.00
2013-5-31,95.9,79.8,65.3,70.8,66.3,61.4,94,67,34,30.02,29.80,7,1,0,0.00
2013-6-1,96.1,80.7,65.3,71.5,67.8,62.3,91,67,42,29.91,29.70,6,2,0,0.00
2013-6-2,86.4,79.0,73.6,70.1,67.8,64.7,78,69,56,29.76,29.65,8,4,0,0.00
2013-6-3,85.8,73.2,65.1,68.5,63.7,55.2,95,74,43,29.81,29.66,6,2,0,0.47
2013-6-4,85.1,65.7,51.4,55.3,48.3,42.7,77,56,27,30.01,29.82,5,1,0,0.00
2013-6-5,82.9,66.9,50.5,54.2,49.3,44.5,86,57,30,30.12,29.91,7,1,0,0.00
2013-6-6,72.5,65.2,61.2,63.4,57.1,51.5,96,76,55,29.99,29.80,4,1,0,0.31
2013-6-7,66.9,64.1,61.3,66.0,63.2,59.6,98,97,94,29.79,29.52,5,2,0,0.72
2013-6-8,83.7,69.5,61.3,65.3,62.5,57.7,98,80,51,29.99,29.57,5,2,0,0.00
2013-6-9,85.3,71.8,57.6,66.2,61.1,55.3,94,72,45,30.09,29.93,6,1,0,0.00
2013-6-10,78.6,70.9,66.2,74.5,68.9,65.3,97,94,80,30.00,29.64,7,2,0,1.40
2013-6-11,82.2,73.2,65.8,71.0,65.8,61.2,97,79,59,29.70,29.57,10,4,0,0.00
2013-6-12,84.7,74.4,62.6,67.7,64.4,59.7,93,72,54,29.75,29.65,5,2,0,0.00
2013-6-13,88.9,73.0,63.3,70.7,65.7,58.8,96,79,54,29.69,29.27,10,3,0,0.76
2013-6-14,82.9,67.5,58.1,59.9,56.9,53.2,90,71,42,29.84,29.48,7,2,0,0.02
2013-6-15,85.8,71.0,58.6,62.6,57.4,51.5,90,65,36,29.96,29.81,7,2,0,0.00
2013-6-16,83.5,70.4,58.5,69.1,61.2,51.0,87,74,52,29.91,29.69,8,2,0,0.11
2013-6-17,90.5,74.8,67.3,73.4,66.9,63.1,94,78,52,29.83,29.69,7,2,0,0.43
2013-6-18,77.9,68.8,64.4,72.7,66.7,63.3,97,93,83,29.79,29.69,11,1,0,1.45
2013-6-19,86.9,70.6,60.8,63.7,58.9,53.7,97,71,35,30.04,29.79,6,1,0,0.00
2013-6-20,84.6,70.0,57.4,66.0,60.2,55.0,97,74,47,30.16,30.04,9,2,0,0.00
2013-6-21,89.2,71.6,57.2,62.8,57.7,53.4,89,64,39,30.21,30.06,7,2,0,0.00
2013-6-22,89.2,74.5,59.2,70.3,64.5,55.6,95,73,49,30.15,29.94,6,2,0,0.00
2013-6-23,90.7,77.0,64.9,72.8,68.9,62.2,94,77,55,30.08,29.86,7,2,0,0.00
2013-6-24,96.1,81.0,68.5,74.7,69.7,66.0,95,71,43,29.99,29.80,6,2,0,0.00
2013-6-25,94.3,79.9,67.5,74.8,69.5,64.9,96,73,46,29.89,29.67,19,2,0,0.01
2013-6-26,91.6,76.7,65.7,73.6,69.0,63.9,96,79,53,29.77,29.60,7,2,0,0.15
2013-6-27,91.2,78.6,67.8,83.9,71.9,67.2,98,81,57,29.70,29.16,9,3,9,0.01
2013-6-28,88.3,76.2,69.6,72.5,69.0,10.1,93,79,55,29.17,29.06,10,4,10,0.00
2013-6-29,93.6,77.1,64.6,68.7,65.8,62.4,95,71,40,29.30,29.08,14,3,14,0.00
2013-6-30,87.3,75.9,66.9,74.5,71.2,65.2,96,86,65,29.45,29.29,5,1,5,0.00
2013-7-1,83.8,76.5,70.9,76.2,72.6,69.0,97,88,75,29.58,29.44,11,2,11,0.32
2013-7-2,86.2,77.4,72.1,75.9,72.9,70.7,97,87,71,29.75,29.57,10,4,10,0.34
2013-7-3,92.1,77.7,72.5,77.6,72.8,70.4,94,86,60,29.82,29.75,8,3,8,0.04
2013-7-4,87.8,80.4,71.8,75.9,73.8,70.6,97,81,66,30.32,29.79,8,3,8,0.00
2013-7-5,92.7,83.1,73.2,76.8,73.7,71.1,94,75,55,30.64,30.08,9,3,9,0.00
2013-7-6,99.9,84.3,73.9,76.7,73.6,71.1,92,72,47,30.66,30.06,10,3,10,0.00
2013-7-7,95.5,79.5,69.8,75.9,71.5,68.0,95,78,52,30.12,30.00,14,3,14,0.07
2013-7-8,90.3,75.7,67.3,74.3,69.3,65.9,97,82,56,30.09,29.66,10,2,10,0.02
2013-7-9,88.2,77.5,70.3,76.3,71.4,68.5,95,82,64,30.10,30.01,7,2,7,0.03
2013-7-10,92.3,79.5,70.5,76.8,72.7,69.3,97,81,58,30.02,29.83,10,3,10,0.10
2013-7-11,88.3,78.4,71.1,72.8,69.0,64.3,93,74,53,29.94,29.83,8,2,8,0.00
2013-7-12,73.0,70.3,68.0,70.0,66.5,62.8,97,88,77,30.06,29.94,6,1,6,0.76
2013-7-13,89.6,77.1,68.7,75.7,71.7,68.1,98,85,60,30.30,30.05,8,2,8,0.13
2013-7-14,95.4,82.0,69.8,76.4,73.1,67.7,96,76,52,30.36,30.27,7,2,7,0.00
2013-7-15,103.6,84.2,70.7,76.9,73.7,69.5,97,73,41,30.31,30.18,8,2,8,0.00
2013-7-16,104.4,85.6,75.9,74.5,72.6,68.7,90,68,36,30.26,30.17,8,1,8,0.00
2013-7-17,106.5,85.8,74.3,74.8,71.6,67.6,92,66,32,30.23,30.10,6,1,6,0.00
2013-7-18,105.8,87.1,76.1,79.0,74.8,71.0,88,69,38,30.12,29.99,8,2,8,0.00
2013-7-19,99.1,84.7,73.9,80.2,74.8,69.9,92,74,48,30.02,29.85,10,2,10,0.04
2013-7-20,95.2,82.6,73.4,76.5,71.9,68.2,88,71,51,29.88,29.79,12,3,12,0.00
2013-7-21,91.2,80.6,73.2,73.8,70.6,67.3,85,73,55,29.95,29.88,6,1,6,0.00
2013-7-22,92.7,79.1,71.1,76.7,72.3,68.8,97,81,57,29.95,29.78,9,2,9,1.44
2013-7-23,91.2,77.8,71.2,76.5,71.3,67.3,98,82,51,29.79,29.62,14,3,14,0.11
2013-7-24,90.5,74.6,63.9,69.4,64.6,55.3,93,73,41,29.97,29.68,10,2,10,0.00
2013-7-25,79.3,67.4,52.9,65.1,58.3,50.0,91,74,61,30.03,29.97,5,2,5,0.00
2013-7-26,95.5,76.4,62.8,63.9,61.6,56.7,93,62,31,30.08,30.02,7,2,7,0.00
2013-7-27,86.7,73.5,62.1,71.6,66.9,60.1,96,81,60,30.06,29.92,15,3,15,0.16
2013-7-28,89.6,75.5,69.8,72.4,69.0,66.6,95,81,52,29.97,29.89,10,3,10,0.02
2013-7-29,88.3,72.8,61.9,70.3,60.3,56.5,94,68,37,30.15,29.97,9,3,9,0.04
2013-7-30,88.7,71.4,58.6,62.8,59.0,55.4,90,67,39,30.23,30.14,8,2,8,0.00
2013-7-31,83.1,71.5,32.0,99.9,65.2,58.2,93,77,61,30.17,30.01,8,1,8,0.00
2013-8-1,80.6,73.1,67.6,72.7,68.7,26.5,97,87,72,30.02,29.83,7,2,7,0.37
2013-8-2,87.8,74.3,64.0,67.3,64.2,60.9,98,74,43,29.95,29.84,11,2,11,0.00
2013-8-3,80.1,71.7,64.9,69.4,65.0,61.8,93,80,68,29.95,29.89,10,3,10,0.04
2013-8-4,86.1,70.7,60.6,63.1,59.5,55.6,97,71,39,30.03,29.91,10,3,10,0.00
2013-8-5,85.9,68.3,55.8,59.0,55.3,50.6,92,66,34,30.10,30.02,9,1,9,0.00
2013-8-6,75.2,67.0,60.6,66.1,61.7,54.9,92,83,70,30.10,30.04,11,2,11,0.02
2013-8-7,79.9,71.9,66.7,72.8,68.6,64.3,97,90,78,30.10,30.01,10,2,10,0.83
2013-8-8,89.1,75.6,67.5,77.6,72.1,66.9,98,90,65,30.05,29.98,18,3,18,0.63
2013-8-9,89.6,78.9,74.5,78.6,74.8,71.9,98,88,68,29.99,29.84,10,4,10,0.47
2013-8-10,90.5,76.3,66.7,72.2,66.8,63.8,95,74,47,30.08,29.93,9,2,9,0.00
2013-8-11,89.4,73.9,61.7,71.8,65.9,60.2,97,78,53,30.15,30.01,7,2,7,0.00
2013-8-12,93.7,77.5,69.1,72.5,68.5,64.7,96,76,42,30.22,29.92,6,2,6,0.00
2013-8-13,88.0,72.6,66.2,72.5,68.4,61.7,98,87,59,29.92,29.72,12,2,12,2.34
2013-8-14,82.0,66.1,55.0,61.6,54.6,48.6,88,68,44,30.09,29.83,12,3,12,0.00
2013-8-15,87.1,65.2,51.6,58.8,54.1,49.9,95,71,34,30.17,30.08,6,1,6,0.00
2013-8-16,88.5,66.5,52.2,61.8,56.1,50.5,96,73,37,30.20,30.14,7,1,7,0.00
2013-8-17,87.8,69.3,55.0,64.9,59.2,53.6,97,73,41,30.28,30.20,7,1,7,0.00
2013-8-18,73.8,67.2,62.1,67.4,62.4,59.4,93,85,68,30.27,30.16,4,0,4,0.11
2013-8-19,78.4,67.8,59.5,68.6,63.4,57.7,96,86,72,30.18,30.07,6,1,6,0.00
2013-8-20,93.0,74.0,61.9,73.1,65.9,61.0,98,79,44,30.17,30.09,8,1,8,0.00
2013-8-21,92.7,74.7,59.2,75.9,68.1,58.1,98,82,55,30.20,30.05,8,1,8,0.00
2013-8-22,90.5,78.6,70.5,74.4,71.3,66.7,96,80,57,30.08,29.91,9,3,9,0.01
2013-8-23,87.4,71.4,32.0,99.9,65.7,58.4,93,79,45,30.13,29.94,5,0,5,0.00
2013-8-24,89.8,69.2,56.1,61.7,57.4,54.4,94,70,34,30.53,30.13,6,1,6,0.00
2013-8-25,88.9,68.9,53.6,66.1,57.9,52.1,97,72,41,30.43,30.26,9,2,9,0.00
2013-8-26,90.3,75.2,61.0,69.7,63.2,55.7,88,68,49,30.28,29.97,14,4,14,0.00
2013-8-27,92.7,79.9,69.1,73.7,69.6,65.6,90,72,52,29.97,29.87,7,2,7,0.00
2013-8-28,86.5,76.3,70.9,75.4,71.9,69.1,96,87,65,29.91,29.81,7,2,7,0.00
2013-8-29,91.8,75.7,69.3,73.2,70.0,67.5,96,84,53,30.03,29.88,5,1,5,0.00
2013-8-30,91.9,78.0,70.0,74.1,70.8,68.2,94,80,54,30.03,29.86,8,4,8,0.00
2013-8-31,91.2,78.7,68.7,76.5,72.2,67.2,96,81,59,30.02,29.78,7,2,7,0.00
2013-9-1,92.5,79.6,70.2,76.9,73.4,69.3,98,82,56,29.85,29.76,10,2,10,0.00
2013-9-2,93.4,79.3,70.9,74.3,71.8,69.7,96,80,51,29.80,29.70,10,2,10,0.19
2013-9-3,87.8,75.0,64.2,72.5,63.1,55.7,95,69,40,29.96,29.72,12,3,12,0.00
2013-9-4,87.6,70.4,58.1,61.5,57.7,55.3,91,67,37,30.06,29.96,9,2,9,0.00
2013-9-5,86.4,69.2,56.8,64.8,56.4,49.8,91,67,34,30.16,29.99,12,2,12,0.00
2013-9-6,84.0,61.2,47.7,50.7,45.4,38.4,90,62,21,30.27,30.16,7,1,7,0.00
2013-9-7,85.8,64.7,47.1,61.8,53.1,44.3,94,70,36,30.16,29.92,8,2,8,0.00
2013-9-8,85.5,71.7,58.1,67.9,61.5,49.1,90,71,50,30.10,29.88,9,2,9,0.00
2013-9-9,79.7,63.1,47.1,64.6,55.1,43.7,91,76,59,30.22,30.10,7,1,7,0.00
2013-9-10,94.6,79.6,68.0,75.7,71.4,65.0,95,78,52,30.16,30.05,10,3,10,0.00
2013-9-11,96.8,82.2,70.7,79.1,74.0,69.5,97,78,54,30.15,29.99,10,2,10,0.00
2013-9-12,91.2,75.8,68.7,78.4,71.4,67.5,97,87,65,30.00,29.73,15,2,15,0.81
2013-9-13,79.0,68.6,59.0,68.8,59.2,50.5,98,74,44,29.92,29.68,9,2,9,0.03
2013-9-14,74.6,58.1,47.3,53.3,48.6,44.2,89,72,47,30.16,29.92,7,2,7,0.00
2013-9-15,77.9,59.4,43.0,58.1,50.6,41.3,97,76,46,30.23,30.07,9,2,9,0.00
2013-9-16,78.3,63.3,53.2,61.5,56.5,50.3,96,80,48,30.26,30.03,7,1,7,0.18
2013-9-17,72.5,54.9,40.3,51.2,43.7,37.6,92,69,39,30.44,30.26,8,2,8,0.00
2013-9-18,77.5,56.6,41.4,53.9,46.6,39.5,97,73,44,30.34,30.18,8,2,8,0.00
2013-9-19,84.6,61.9,43.3,60.8,52.5,41.1,96,74,44,30.20,30.06,9,2,9,0.00
2013-9-20,83.9,65.8,50.4,64.4,57.6,48.7,97,78,49,30.09,29.96,9,2,9,0.00
2013-9-21,75.7,65.5,57.9,66.6,61.3,56.2,98,87,66,29.98,29.68,13,4,13,0.96
2013-9-22,70.0,60.7,50.2,61.5,53.7,45.9,98,80,53,29.95,29.71,12,2,12,0.06
2013-9-23,73.8,56.6,46.0,51.5,45.8,41.0,89,69,45,30.08,29.95,9,2,9,0.00
2013-9-24,80.2,55.6,40.8,53.3,46.6,39.2,96,75,39,30.11,29.93,7,1,7,0.00
2013-9-25,81.0,57.8,43.9,53.4,47.7,42.3,95,73,32,29.99,29.88,7,1,7,0.00
2013-9-26,81.0,60.8,46.4,58.6,52.4,44.8,97,77,41,30.07,29.94,6,0,6,0.00
2013-9-27,77.4,65.0,55.8,60.9,56.1,51.7,92,75,46,30.25,30.07,6,1,6,0.00
2013-9-28,77.4,61.9,50.2,58.2,53.7,48.0,95,77,48,30.32,30.22,6,1,6,0.00
2013-9-29,75.9,59.4,46.6,58.7,52.2,45.0,96,79,53,30.22,30.07,8,1,8,0.00
2013-9-30,80.4,61.1,48.4,60.2,52.5,47.0,97,77,42,30.09,29.97,7,1,7,0.00
2013-10-1,82.4,64.8,50.9,64.2,57.0,49.2,95,78,51,30.05,29.94,8,2,8,0.00
2013-10-2,87.6,69.2,54.5,67.2,60.5,53.4,98,77,49,30.05,29.96,12,2,12,0.00
2013-10-3,84.9,70.2,57.2,67.6,62.6,55.8,97,79,53,30.13,30.04,8,1,8,0.00
2013-10-4,90.3,71.9,59.9,70.4,64.9,59.0,98,81,51,30.09,30.00,7,1,7,0.00
2013-10-5,89.8,74.8,65.8,70.9,67.1,63.6,94,79,50,30.08,29.98,8,2,8,0.00
2013-10-6,88.0,74.2,65.7,73.5,67.9,64.8,97,82,60,30.04,29.92,10,2,10,0.00
2013-10-7,72.5,65.1,52.9,70.4,62.8,47.7,98,92,81,30.02,29.72,15,3,15,1.69
2013-10-8,69.8,55.9,45.0,51.1,47.6,0.4,96,76,45,30.31,30.02,8,1,8,0.01
2013-10-9,61.3,53.1,44.1,51.5,47.4,42.3,95,82,64,30.37,30.25,7,1,7,0.00
2013-10-10,57.6,54.8,51.1,57.0,52.7,17.5,98,93,82,30.25,30.02,7,2,7,5.17
2013-10-11,56.3,55.6,55.0,55.7,55.0,54.4,98,98,98,30.02,29.97,4,1,4,1.93
2013-10-12,71.6,62.3,55.6,59.1,54.5,47.8,98,78,50,30.19,29.98,11,3,11,0.00
2013-10-13,72.0,61.6,53.4,56.6,53.8,32.2,86,76,56,30.35,30.19,13,4,13,0.00
2013-10-14,72.7,57.8,49.8,55.3,51.4,46.6,94,80,53,30.35,30.22,6,0,6,0.00
2013-10-15,75.9,57.9,46.2,57.0,50.7,45.1,98,80,44,30.25,30.09,6,1,6,0.00
2013-10-16,70.5,61.8,55.2,62.3,57.1,50.2,95,85,75,30.09,29.90,7,1,7,0.00
2013-10-17,75.0,64.7,58.6,65.8,61.8,57.5,98,91,72,29.90,29.70,18,2,18,0.13
2013-10-18,67.1,56.0,43.9,57.3,47.0,41.2,91,73,50,30.00,29.78,15,3,15,0.00
2013-10-19,64.0,51.3,39.4,54.7,46.6,37.6,98,85,64,30.04,29.76,9,2,9,0.16
2013-10-20,63.5,51.6,41.0,48.5,41.1,36.6,87,69,45,30.08,29.82,14,3,14,0.00
2013-10-21,70.3,51.2,35.4,49.9,41.2,33.2,96,72,41,30.14,29.94,13,2,13,0.00
2013-10-22,61.9,50.2,39.6,51.1,43.6,34.2,96,79,44,29.95,29.80,10,1,10,0.00
2013-10-23,57.7,44.8,38.1,40.5,36.4,33.4,88,74,49,29.85,29.67,8,2,8,0.00
2013-10-24,52.0,42.6,36.1,36.5,32.6,28.9,85,69,48,30.08,29.84,14,4,14,0.00
2013-10-25,53.9,42.6,32.4,39.6,33.0,28.7,87,70,53,30.27,30.08,13,3,13,0.00
2013-10-26,57.7,45.5,34.0,34.3,31.9,28.8,82,61,39,30.27,29.91,17,4,17,0.00
2013-10-27,59.0,47.2,36.7,39.9,34.7,31.7,82,63,45,30.15,29.91,11,3,11,0.00
2013-10-28,63.5,43.6,30.0,43.5,35.2,27.3,94,75,44,30.29,30.14,6,1,6,0.00
2013-10-29,64.0,46.2,34.5,45.1,38.8,31.7,93,77,50,30.40,30.29,6,1,6,0.00
2013-10-30,64.6,53.7,47.7,56.5,50.1,44.6,97,88,72,30.32,30.14,8,1,8,0.00
2013-10-31,66.2,58.8,50.9,61.3,56.7,50.1,98,93,83,30.20,29.75,12,2,12,0.05
2013-11-1,73.9,63.5,50.2,64.7,55.7,46.1,95,78,48,29.75,29.51,14,5,14,0.51
2013-11-2,65.3,53.6,45.1,52.8,45.9,39.9,94,77,53,29.84,29.64,10,2,10,0.00
2013-11-3,55.0,45.3,30.9,43.7,33.1,22.3,85,64,37,30.48,29.83,12,3,12,0.00
2013-11-4,47.1,34.3,23.9,26.6,23.4,19.5,84,67,40,30.64,30.48,6,1,6,0.00
2013-11-5,59.0,45.3,32.2,46.4,37.6,25.8,86,75,59,30.62,30.45,8,1,8,0.00
2013-11-6,68.0,56.3,48.9,54.3,49.8,45.1,89,79,60,30.45,30.03,14,5,14,0.00
2013-11-7,58.6,53.1,40.6,56.6,47.1,27.0,94,81,56,30.03,29.85,17,5,17,0.17
2013-11-8,49.5,41.0,35.1,33.6,29.3,26.0,77,63,49,30.27,30.03,16,4,16,0.00
2013-11-9,54.5,39.7,27.1,34.2,29.4,23.1,88,68,44,30.33,29.97,12,2,12,0.00
2013-11-10,57.9,46.0,31.6,40.0,33.5,28.2,88,63,50,30.15,29.92,17,6,17,0.00
2013-11-11,54.7,46.7,35.4,37.0,33.1,28.3,77,60,48,30.25,29.98,13,4,13,0.00
2013-11-12,50.4,37.0,25.7,38.5,23.8,14.4,76,59,44,30.36,29.96,14,4,14,0.00
2013-11-13,41.9,32.4,25.2,24.3,20.1,15.7,77,61,47,30.43,30.32,13,4,13,0.00
2013-11-14,55.4,41.0,26.2,23.1,18.6,12.7,69,44,19,30.32,30.18,10,4,10,0.00
2013-11-15,60.8,41.5,26.6,36.4,27.9,20.9,82,61,28,30.26,30.15,6,1,6,0.00
2013-11-16,60.9,48.7,38.5,49.3,43.9,35.6,96,84,63,30.32,30.23,7,2,7,0.03
2013-11-17,62.1,55.8,49.3,59.0,53.7,48.2,98,93,84,30.23,29.69,18,3,18,0.00
2013-11-18,65.5,57.8,45.1,60.8,40.0,28.5,95,54,31,29.91,29.63,17,6,17,0.12
2013-11-19,49.8,40.9,28.9,31.5,26.9,20.8,73,58,48,30.37,29.91,17,6,17,0.00
2013-11-20,48.7,33.1,23.2,26.6,20.6,17.0,83,62,34,30.57,30.36,7,1,7,0.00
2013-11-21,51.0,37.6,22.1,39.4,29.2,16.6,81,72,59,30.59,30.36,6,0,6,0.00
2013-11-22,53.2,48.3,45.1,49.1,45.0,38.8,96,88,76,30.36,29.98,15,0,15,0.03
2013-11-23,51.8,39.4,27.1,46.8,27.1,8.5,83,62,45,30.15,30.00,20,7,20,0.01
2013-11-24,30.7,25.0,20.8,11.7,5.6,-1.4,62,44,26,30.46,30.15,20,9,20,0.00
2013-11-25,35.2,26.3,16.5,17.2,11.9,7.1,71,55,40,30.52,30.30,9,3,9,0.00
2013-11-26,42.1,33.5,30.6,41.1,25.6,14.4,97,75,50,30.31,29.58,12,2,12,1.43
2013-11-27,45.0,36.4,28.9,44.5,32.2,17.9,98,85,62,29.92,29.47,20,8,20,0.63
2013-11-28,36.1,29.8,26.2,20.7,18.2,15.7,71,62,50,30.46,29.92,17,6,17,0.00
2013-11-29,40.3,27.7,19.4,25.3,19.3,14.7,85,72,51,30.72,30.45,9,1,9,0.00
2013-11-30,38.5,26.2,14.0,25.0,18.8,9.5,86,74,57,30.73,30.36,7,1,7,0.00
2013-12-1,41.9,32.4,21.0,31.4,26.1,17.5,92,78,64,30.36,30.02,6,0,6,0.00
2013-12-2,47.8,38.1,31.8,37.4,32.3,28.7,90,80,66,30.02,29.88,4,0,4,0.00
2013-12-3,53.1,40.0,32.2,40.6,34.8,29.3,92,83,62,30.01,29.89,6,0,6,0.00
2013-12-4,56.5,44.5,33.1,47.2,39.9,31.3,95,85,69,30.11,29.98,6,1,6,0.00
2013-12-5,57.4,53.1,48.4,56.3,52.4,47.2,98,97,94,30.07,29.90,6,1,6,0.00
2013-12-6,69.6,59.5,48.0,69.0,58.9,47.5,98,98,72,30.18,29.84,7,2,7,2.04
2013-12-7,59.9,41.8,23.0,99.9,38.7,18.3,98,84,68,30.56,30.13,12,3,12,0.16
2013-12-8,29.3,26.4,22.5,27.3,21.7,17.1,94,83,64,30.58,30.32,7,2,7,0.32
2013-12-9,38.1,33.2,28.6,35.3,31.8,-13.8,97,94,89,30.32,30.01,6,1,6,0.06
2013-12-10,42.4,31.0,18.1,36.6,27.8,13.5,97,88,74,30.17,29.95,10,1,10,0.04
2013-12-11,39.2,24.1,14.7,23.8,16.4,10.2,86,73,50,30.35,30.16,10,2,10,0.12
2013-12-12,28.8,23.6,14.2,17.8,11.4,7.7,86,61,44,30.38,30.24,13,3,13,0.00
2013-12-13,38.3,29.4,23.5,21.5,14.5,8.5,80,54,45,30.30,30.17,16,3,16,0.01
2013-12-14,33.3,29.3,25.7,29.6,25.0,20.7,94,84,71,30.36,29.74,10,3,10,0.29
2013-12-15,40.5,32.7,28.8,36.2,28.0,20.6,94,83,67,29.88,29.61,17,3,17,0.71
2013-12-16,31.8,25.2,18.1,24.6,14.0,8.1,75,62,52,30.19,29.88,13,4,13,0.00
2013-12-17,33.6,24.2,18.9,26.8,19.5,14.6,90,82,63,30.17,29.93,8,2,8,0.00
2013-12-18,38.3,27.9,19.9,24.7,21.0,17.6,93,77,52,30.18,29.96,13,2,13,0.06
2013-12-19,43.2,28.9,16.9,29.8,22.8,13.4,88,78,58,30.18,30.04,6,1,6,0.03
2013-12-20,51.1,37.3,28.2,37.8,31.6,25.9,92,81,59,30.09,29.95,6,0,6,0.00
2013-12-21,63.3,47.0,35.8,59.4,42.6,33.4,98,85,67,29.99,29.85,12,1,12,0.00
2013-12-22,65.3,62.4,59.4,63.9,59.9,57.1,96,92,84,29.95,29.75,18,5,18,0.16
2013-12-23,60.4,50.6,34.9,58.4,47.5,27.5,98,89,73,30.21,29.90,18,3,18,0.84
2013-12-24,38.7,29.7,21.4,28.4,20.7,10.7,87,69,55,30.42,30.16,21,5,21,0.00
2013-12-25,29.3,22.8,14.2,17.2,11.9,8.3,78,63,51,30.54,30.36,9,3,9,0.00
2013-12-26,40.6,28.7,19.4,29.5,21.8,14.5,88,76,57,30.36,30.18,13,2,13,0.07
2013-12-27,47.7,30.3,17.6,26.8,20.8,13.0,88,70,38,30.36,30.27,12,2,12,0.00
2013-12-28,58.1,38.4,21.2,32.6,26.4,18.2,90,66,36,30.28,30.08,12,2,12,0.00
2013-12-29,42.3,39.1,36.1,41.5,36.3,29.5,98,90,70,30.08,29.51,10,2,10,1.03
2013-12-30,44.1,35.0,19.9,40.5,28.3,13.6,97,77,62,30.17,29.75,15,3,15,0.13
2013-12-31,38.3,26.8,18.9,25.7,17.7,12.5,80,69,52,30.29,30.05,18,4,18,0.00
2014-1-1,36.1,27.7,18.1,26.3,21.2,12.1,83,77,67,30.38,30.14,6,2,6,0.00
2014-1-2,32.4,26.7,19.9,27.6,22.9,16.9,92,86,78,30.14,29.66,8,3,8,0.00